Alma, Georgia
Current Conditions -  °F | °C
As of 11:53 AM on Friday 19 Dec 2014 (Local Time) from KAMG Reporting Station
Clear Clear  
Wind Chill: 58°   Ceiling: Unl
Heat Index: 58°   Visibility: 10mi
Dew Point: 39°   Wind: 5mph
Humidity: 49%   Direction: NA
Pressure: 30.16"   Gusts: NA
Location:  31.54°N, 82.46°W
Report Text: KAMG 191653Z AUTO VRB04KT 10SM CLR 14/04 A3016 RMK AO2 SLP211 T01440039
Loading
Personal Weather Stations






























Interactive Weather Map New forecast layout! Learn more

10-Day Weather Forecast

Advertisements
Track Severe Weather on mobile